АЭРОДРОМУУД

ICAO:
ZMUB
Нэр:
УЛААНБААТАР / БУЯНТ-УХАА
Ахц:
475033N 1064603E
090217 ZMUBYNYX
(A0185/21 NOTAMN
Q) ZMUB/QOBTT/IV/BO /AE/000/999/4750N10646E005
A) ZMUB B) 2105200000 C) 2106022359
E) TRIGGER NOTAM-PERM AIRAC AIP AMDT 02/21 WEF 20 MAY 2021 -UPDATES OF ZMUB AREA 2 OBST )
- 5 days ago -

060946 ZMUBYNYX
(A0178/21 NOTAMN
Q) ZMUB/QFAHX/IV/NBO/A /000/999/4751N10644E001
A) ZMUB B) 2104061000 C) 2104301200
D) 06-29 1000-1200 2200-2300 30 1000-1200
E) AD BIRD CONCENTRATION WI 1.3KM RADIUS CENTRED ON 475148N1064421E
F) GND G) 300M AGL)
- 1 week ago -

010144 ZMUBYNYX
(C0036/21 NOTAMR C0024/21
Q) ZMUB/QKKKK/K /K /K /000/999/4752N10350E999
A) ZMUB B) 2104010144 C) 2105010700 EST
E) CHECKLIST YEAR=2021 0009 0030 LATEST PUBLICATIONS: AIP AMDT: 01/21 PUBLICATION DATE 14 JAN 2021 AIRAC AIP AMDT: 01/21 WEF 25 MAR 2021 AIC (SERIES C): 01/21 PUBLICATION DATE 18 JAN 2021 AIP SUP: 08/20 PUBLICATION DATE 19 NOV 2020 AIRAC AIP SUP: 01/18 WEF 21 JUN 2018 AIP DATA SET:AIPZM-AMDT01-21 PUB 14 JAN 2021 OBST DATA SET:O-AREA1ZM200618 WEF 18 JUN 2020 O-AREA2ZMCK200618 WEF 18 JUN 2020 O-AREA2ZMUB200730 WEF 10 SEP 2020 O-AREA3ZMCK200618 WEF 18 JUN 2020 O-AREA3ZMUB200618 WEF 18 JUN 2020 TERRAIN DATA SET: T-AREA1ZM200618 WEF 18 JUN 2020 T-AREA2ZMCK200618 WEF 18 JUN 2020 T-AREA2ZMUB200618 WEF 18 JUN 2020 T-AREA3ZMCK200618 WEF 18 JUN 2020 T-AREA3ZMUB200618 WEF 18 JUN 2020 AD MAPPING DATA SET: AMDBZMCK200618 WEF 18 JUN 2020 AMDBZMUB200618 WEF 18 JUN 2020 AMDBZMDZ200618 WEF 18 JUN 2020 IFP DATA SET:IFPZM21 WEF 04 JAN 2021 AIP SUP CHECKLIST: AIP SUP: 01/20, 05/20, 06/20, 07/20, 08/20 AIRAC AIP SUP: 01/18 AIC CHECKLIST: AIC (SERIES C): 02/08, 02/20, 01/21)
- 2 weeks ago -

010137 ZMUBYNYX
(A0165/21 NOTAMR A0092/21
Q) ZMUB/QKKKK/K /K /K /000/999/4752N10350E999
A) ZMUB B) 2104010137 C) 2105010700 EST
E) CHECKLIST YEAR=2021 0077 0117 0119 0160 0162 0163 0164 LATEST PUBLICATIONS: AIP AMDT: 01/21 PUBLICATION DATE 14 JAN 2021 AIRAC AIP AMDT: 01/21 WEF 25 MAR 2021 AIC (SERIES A): 02/21 PUBLICATION DATE 18 JAN 2021 AIP SUP: 08/20 PUBLICATION DATE 19 NOV 2020 AIRAC AIP SUP: 01/18 WEF 21 JUN 2018 AIP DATA SET:AIPZM-AMDT01-21 PUB 14 JAN 2021 OBST DATA SET:O-AREA1ZM200618 WEF 18 JUN 2020 O-AREA2ZMCK200618 WEF 18 JUN 2020 O-AREA2ZMUB200730 WEF 10 SEP 2020 O-AREA3ZMCK200618 WEF 18 JUN 2020 O-AREA3ZMUB200618 WEF 18 JUN 2020 TERRAIN DATA SET: T-AREA1ZM200618 WEF 18 JUN 2020 T-AREA2ZMCK200618 WEF 18 JUN 2020 T-AREA2ZMUB200618 WEF 18 JUN 2020 T-AREA3ZMCK200618 WEF 18 JUN 2020 T-AREA3ZMUB200618 WEF 18 JUN 2020 AD MAPPING DATA SET: AMDBZMCK200618 WEF 18 JUN 2020 AMDBZMUB200618 WEF 18 JUN 2020 AMDBZMDZ200618 WEF 18 JUN 2020 IFP DATA SET:IFPZM21 WEF 04 JAN 2021 AIP SUP CHECKLIST: AIP SUP: 01/20, 05/20, 06/20, 07/20, 08/20 AIRAC AIP SUP: 01/18 AIC CHECKLIST: AIC (SERIES A): 04/17, 03/20, 06/20, 01/21, 02/21)
- 2 weeks ago -

311021 ZMUBYNYX
(A0162/21 NOTAMR A0829/20
Q) ZMUB/QFALC/IV/NBO/A /000/999/4750N10646E005
A) ZMUB B) 2103311021 C) 2104302359
E) AD CLSD FOR INTL SKED FLT DUE TO COVID-19 INFECTION PREVENTION.)
- 2 weeks ago -

METAR
METAR ZMUB 140230Z VRB02MPS 9999 BKN250 06/M06 Q1007 NOSIG RMK QFE649.2 43 MOP=
- 18 minutes ago -

TAF
TAF ZMUB 140159Z 1403/1412 VRB02MPS 9999 SCT100 BECMG 1405/1408 34008MPS SCT033 BKN100 BECMG 1408/1410 6000 SNRA BLSN SCT027 BKN080=
- 44 minutes ago -

TAF ZMUB 132258Z 1400/1409 VRB02MPS 9999 SCT100 BECMG 1404/1407 34008MPS SCT033 BKN100=
- 4 hours ago -

TAF ZMUB 132240Z 1400/1506 VRB02MPS 9999 SCT100 TX07/1406Z TNM07/1422Z BECMG 1404/1407 34008MPS SCT033 BKN100 BECMG 1408/1410 6000 SNRA BLSN SCT027 BKN080 TEMPO 1410/1420 3000 BECMG 1417/1420 33005MPS BECMG 1502/1504 30007MPS=
- 4 hours ago -

TAF ZMUB 131640Z 1318/1424 VRB02MPS 9999 SCT100 TNM07/1322Z TX07/1406Z BECMG 1404/1406 34008MPS SCT033 BKN100 BECMG 1408/1410 6000 SNRA BLSN SCT027 BKN080 TEMPO 1410/1420 3000 BECMG 1416/1419 33005MPS=
- 10 hours ago -

TAF ZMUB 131040Z 1312/1418 VRB02MPS 9999 SCT100 TNM07/1322Z TX07/1406Z BECMG 1404/1406 34008MPS SCT033 BKN100 BECMG 1408/1410 6000 SNRA BLSN SCT027 BKN080 TEMPO 1410/1418 3000=
- 16 hours ago -

TAF ZMUB 130500Z 1306/1415 VRB02MPS 9999 SCT100=
- 22 hours ago -

TAF ZMUB 130440Z 1306/1412 VRB02MPS 9999 SCT100 TX06/1306Z TNM07/1322Z BECMG 1404/1406 34009MPS SCT033 BKN100 BECMG 1407/1409 6000 SNRA BLSN SCT027 BKN080=
- 22 hours ago -

TAF ZMUB 122240Z 1300/1406 VRB02MPS 9999 SCT100 TX06/1306Z TNM07/1322Z=
- 1 day ago -